createdAt,value
2022-10-19T00:00:30.969Z,5.80
2022-10-19T00:03:03.597Z,5.80
2022-10-19T00:05:43.475Z,5.80
2022-10-19T00:08:43.209Z,5.80
2022-10-19T00:11:45.834Z,5.70
2022-10-19T00:14:27.983Z,5.70
2022-10-19T00:20:15.264Z,5.70
2022-10-19T00:23:13.962Z,5.60
2022-10-19T00:26:09.916Z,5.60
2022-10-19T00:29:21.326Z,5.60
2022-10-19T00:32:11.583Z,5.60
2022-10-19T00:35:00.062Z,5.60
2022-10-19T00:37:50.454Z,5.50
2022-10-19T00:40:41.012Z,5.50
2022-10-19T00:43:34.009Z,5.40
2022-10-19T00:46:33.447Z,5.40
2022-10-19T00:49:20.756Z,5.40
2022-10-19T00:52:14.820Z,5.30
2022-10-19T00:54:55.244Z,5.20
2022-10-19T00:57:37.965Z,5.20
2022-10-19T01:00:24.350Z,5.20
2022-10-19T01:02:56.442Z,5.20
2022-10-19T01:05:40.718Z,5.10
2022-10-19T01:08:30.260Z,5.10
2022-10-19T01:11:17.397Z,5.10
2022-10-19T01:14:06.464Z,5.20
2022-10-19T01:17:13.503Z,5.20
2022-10-19T01:20:19.491Z,5.20
2022-10-19T01:23:16.606Z,5.10
2022-10-19T01:26:07.893Z,5.10
2022-10-19T01:29:01.746Z,5.10
2022-10-19T01:31:52.958Z,5.00
2022-10-19T01:34:53.077Z,5.00
2022-10-19T01:37:47.205Z,5.00
2022-10-19T01:40:33.749Z,4.90
2022-10-19T01:43:25.559Z,4.90
2022-10-19T01:46:16.444Z,4.80
2022-10-19T01:49:20.125Z,4.80
2022-10-19T01:52:01.276Z,4.80
2022-10-19T01:54:57.815Z,4.70
2022-10-19T01:57:48.787Z,4.70
2022-10-19T02:00:34.968Z,4.70
2022-10-19T02:03:30.471Z,4.60
2022-10-19T02:06:09.407Z,4.60
2022-10-19T02:09:00.005Z,4.60
2022-10-19T02:11:32.031Z,4.60
2022-10-19T02:14:25.781Z,4.50
2022-10-19T02:17:16.677Z,4.50
2022-10-19T02:19:54.762Z,4.50
2022-10-19T02:22:34.621Z,4.50
2022-10-19T02:25:15.622Z,4.50
2022-10-19T02:27:51.809Z,4.40
2022-10-19T02:30:25.035Z,4.40
2022-10-19T02:33:18.129Z,4.30
2022-10-19T02:35:58.476Z,4.30
2022-10-19T02:38:48.322Z,4.30
2022-10-19T02:41:35.749Z,4.20
2022-10-19T02:44:51.905Z,4.20
2022-10-19T02:47:40.187Z,4.20
2022-10-19T02:50:20.471Z,4.10
2022-10-19T02:53:01.313Z,4.10
2022-10-19T02:58:13.227Z,4.00
2022-10-19T03:01:03.361Z,4.00
2022-10-19T03:03:55.295Z,4.00
2022-10-19T03:06:40.724Z,3.90
2022-10-19T03:09:16.818Z,3.90
2022-10-19T03:11:57.988Z,3.90
2022-10-19T03:14:44.662Z,3.90
2022-10-19T03:17:26.549Z,3.90
2022-10-19T03:20:04.601Z,3.90
2022-10-19T03:22:42.329Z,3.90
2022-10-19T03:25:19.850Z,3.90
2022-10-19T03:28:12.547Z,3.90
2022-10-19T03:30:47.889Z,4.00
2022-10-19T03:33:31.500Z,4.10
2022-10-19T03:36:35.337Z,4.10
2022-10-19T03:39:17.233Z,4.20
2022-10-19T03:41:51.021Z,4.30
2022-10-19T03:44:33.531Z,4.40
2022-10-19T03:47:10.043Z,4.50
2022-10-19T03:49:55.285Z,4.50
2022-10-19T03:52:34.121Z,4.60
2022-10-19T03:55:26.428Z,4.60
2022-10-19T03:58:07.439Z,4.70
2022-10-19T04:00:49.556Z,4.80
2022-10-19T04:03:29.048Z,4.90
2022-10-19T04:06:16.939Z,4.90
2022-10-19T04:08:56.065Z,5.00
2022-10-19T04:11:50.302Z,5.00
2022-10-19T04:14:56.985Z,5.10
2022-10-19T04:17:48.683Z,5.20
2022-10-19T04:20:52.817Z,5.20
2022-10-19T04:23:32.874Z,5.30
2022-10-19T04:26:20.034Z,5.30
2022-10-19T04:29:08.177Z,5.40
2022-10-19T04:31:41.372Z,5.40
2022-10-19T04:34:25.912Z,5.50
2022-10-19T04:37:09.777Z,5.50
2022-10-19T04:39:51.586Z,5.50
2022-10-19T04:42:27.979Z,5.60
2022-10-19T04:45:15.609Z,5.70
2022-10-19T04:47:56.328Z,5.80
2022-10-19T04:50:41.618Z,5.80
2022-10-19T04:53:16.429Z,5.80
2022-10-19T04:56:01.549Z,5.90
2022-10-19T04:58:43.137Z,5.90
2022-10-19T05:01:47.469Z,6.00
2022-10-19T05:04:32.071Z,6.00
2022-10-19T05:10:29.895Z,6.10
2022-10-19T05:13:21.934Z,6.10
2022-10-19T05:16:12.383Z,6.20
2022-10-19T05:18:53.285Z,6.20
2022-10-19T05:21:43.130Z,6.30
2022-10-19T05:24:22.209Z,6.30
2022-10-19T05:27:00.726Z,6.30
2022-10-19T05:29:38.218Z,6.40
2022-10-19T05:32:09.667Z,6.40
2022-10-19T05:34:53.811Z,6.40
2022-10-19T05:37:49.326Z,6.40
2022-10-19T05:40:50.269Z,6.50
2022-10-19T05:43:26.051Z,6.50
2022-10-19T05:46:07.392Z,6.60
2022-10-19T05:49:00.651Z,6.60
2022-10-19T05:51:46.010Z,6.60
2022-10-19T05:54:38.998Z,6.70
2022-10-19T05:57:19.602Z,6.70
2022-10-19T06:00:05.677Z,6.70
2022-10-19T06:02:43.018Z,6.70
2022-10-19T06:05:24.217Z,6.80
2022-10-19T06:08:05.685Z,6.80
2022-10-19T06:10:51.803Z,6.80
2022-10-19T06:13:41.910Z,6.80
2022-10-19T06:16:20.705Z,6.90
2022-10-19T06:18:56.609Z,6.90
2022-10-19T06:21:34.151Z,6.90
2022-10-19T06:24:28.129Z,6.90
2022-10-19T06:27:03.852Z,6.90
2022-10-19T06:29:50.228Z,7.00
2022-10-19T06:32:33.649Z,7.00
2022-10-19T06:35:15.859Z,7.10
2022-10-19T06:40:48.769Z,7.20
2022-10-19T06:43:47.862Z,7.30
2022-10-19T06:46:45.533Z,7.30
2022-10-19T06:49:30.082Z,7.40
2022-10-19T06:52:13.851Z,7.50
2022-10-19T06:54:58.556Z,7.60
2022-10-19T06:57:35.292Z,7.70
2022-10-19T07:00:21.744Z,7.80
2022-10-19T07:03:08.465Z,7.80
2022-10-19T07:05:42.218Z,7.90
2022-10-19T07:08:22.943Z,8.00
2022-10-19T07:13:52.115Z,8.20
2022-10-19T07:16:33.839Z,8.30
2022-10-19T07:19:15.367Z,8.40
2022-10-19T07:22:01.876Z,8.40
2022-10-19T07:24:48.274Z,8.50
2022-10-19T07:27:17.470Z,8.60
2022-10-19T07:29:46.764Z,8.80
2022-10-19T07:32:15.340Z,8.80
2022-10-19T07:34:45.230Z,8.90
2022-10-19T07:37:13.795Z,9.00
2022-10-19T07:39:42.258Z,9.10
2022-10-19T07:42:13.682Z,9.30
2022-10-19T07:44:42.828Z,9.40
2022-10-19T07:47:12.632Z,9.50
2022-10-19T07:49:44.264Z,9.70
2022-10-19T07:52:16.420Z,9.90
2022-10-19T07:54:47.273Z,10.10
2022-10-19T07:57:15.520Z,10.30
2022-10-19T07:59:43.939Z,10.40
2022-10-19T08:02:17.205Z,10.60
2022-10-19T08:05:04.305Z,10.70
2022-10-19T08:07:37.801Z,10.80
2022-10-19T08:10:08.417Z,11.00
2022-10-19T08:12:39.048Z,11.10
2022-10-19T15:41:06.331Z,13.00
2022-10-19T15:43:44.145Z,12.90
2022-10-19T15:46:28.481Z,12.80
2022-10-19T15:48:58.510Z,12.70
2022-10-19T15:51:47.185Z,12.60
2022-10-19T15:54:17.330Z,12.50
2022-10-19T15:56:48.868Z,12.40
2022-10-19T15:59:19.290Z,12.30
2022-10-19T16:01:53.718Z,12.20
2022-10-19T16:04:24.204Z,12.20
2022-10-19T16:06:52.568Z,12.10
2022-10-19T16:09:22.699Z,12.00
2022-10-19T16:11:56.881Z,11.90
2022-10-19T16:14:26.567Z,11.80
2022-10-19T16:16:55.978Z,11.70
2022-10-19T16:19:24.501Z,11.70
2022-10-19T16:21:52.919Z,11.60
2022-10-19T16:24:22.034Z,11.40
2022-10-19T16:26:51.982Z,11.40
2022-10-19T16:29:20.419Z,11.30
2022-10-19T16:31:49.553Z,11.20
2022-10-19T16:34:18.044Z,11.10
2022-10-19T16:36:46.971Z,11.00
2022-10-19T16:39:15.357Z,10.90
2022-10-19T16:41:45.546Z,10.90
2022-10-19T16:44:15.959Z,10.80
2022-10-19T16:46:44.409Z,10.70
2022-10-19T16:49:13.010Z,10.60
2022-10-19T16:51:43.053Z,10.50
2022-10-19T16:54:13.234Z,10.50
2022-10-19T16:56:45.827Z,10.40
2022-10-19T16:59:19.864Z,10.30
2022-10-19T17:01:49.022Z,10.30
2022-10-19T17:04:18.843Z,10.20
2022-10-19T17:06:47.420Z,10.10
2022-10-19T17:09:41.399Z,10.10
2022-10-19T17:12:04.540Z,10.00
2022-10-19T17:14:35.069Z,9.90
2022-10-19T17:17:03.721Z,9.90
2022-10-19T17:19:32.057Z,9.80
2022-10-19T17:22:01.927Z,9.70
2022-10-19T17:24:30.588Z,9.70
2022-10-19T17:27:01.688Z,9.60
2022-10-19T17:29:30.262Z,9.50
2022-10-19T17:32:01.289Z,9.50
2022-10-19T17:34:29.675Z,9.40
2022-10-19T17:36:58.749Z,9.30
2022-10-19T17:39:29.030Z,9.20
2022-10-19T17:42:02.362Z,9.10
2022-10-19T17:44:32.289Z,9.10
2022-10-19T17:47:02.797Z,9.00
2022-10-19T17:49:31.281Z,8.90
2022-10-19T17:51:59.973Z,8.90
2022-10-19T17:54:28.619Z,8.80
2022-10-19T17:56:57.139Z,8.70
2022-10-19T17:59:34.555Z,8.60
2022-10-19T18:02:07.523Z,8.60
2022-10-19T18:07:04.281Z,8.40
2022-10-19T18:09:33.633Z,8.40
2022-10-19T18:12:07.096Z,8.30
2022-10-19T18:14:36.079Z,8.20
2022-10-19T18:17:05.937Z,8.20
2022-10-19T18:19:34.519Z,8.10
2022-10-19T18:22:03.248Z,8.10
2022-10-19T18:24:32.955Z,8.00
2022-10-19T18:27:02.535Z,8.00
2022-10-19T18:29:31.220Z,7.90
2022-10-19T18:32:01.553Z,7.90
2022-10-19T18:34:31.956Z,7.90
2022-10-19T18:37:00.608Z,7.80
2022-10-19T18:39:28.951Z,7.80
2022-10-19T18:41:57.779Z,7.80
2022-10-19T18:44:29.514Z,7.70
2022-10-19T18:47:01.796Z,7.70
2022-10-19T18:49:41.611Z,7.70
2022-10-19T18:52:15.536Z,7.70
2022-10-19T18:54:48.868Z,7.70
2022-10-19T18:57:20.463Z,7.70
2022-10-19T18:59:49.336Z,7.70
2022-10-19T19:02:22.839Z,7.80
2022-10-19T19:05:05.170Z,7.80
2022-10-19T19:07:39.014Z,7.90
2022-10-19T19:10:17.042Z,7.90
2022-10-19T19:12:53.338Z,7.90
2022-10-19T19:15:24.882Z,7.90
2022-10-19T19:17:55.934Z,7.90
2022-10-19T19:20:25.851Z,7.90
2022-10-19T19:22:54.241Z,7.90
2022-10-19T19:25:22.611Z,7.90
2022-10-19T19:27:50.971Z,7.90
2022-10-19T19:30:19.537Z,8.00
2022-10-19T19:32:48.088Z,8.00
2022-10-19T19:35:16.858Z,8.00
2022-10-19T19:37:46.758Z,8.00
2022-10-19T19:40:18.547Z,8.00
2022-10-19T19:42:47.218Z,8.00
2022-10-19T19:45:15.762Z,8.00
2022-10-19T19:47:48.924Z,8.00
2022-10-19T19:50:19.811Z,7.90
2022-10-19T19:52:50.922Z,8.00
2022-10-19T19:55:19.479Z,8.00
2022-10-19T19:57:50.059Z,8.00
2022-10-19T20:00:18.979Z,7.90
2022-10-19T20:02:51.939Z,8.00
2022-10-19T20:05:20.369Z,8.00
2022-10-19T20:07:50.636Z,8.00
2022-10-19T20:10:19.080Z,7.90
2022-10-19T20:12:48.491Z,7.90
2022-10-19T20:15:21.220Z,7.90
2022-10-19T20:17:54.785Z,7.80
2022-10-19T20:20:26.460Z,7.80
2022-10-19T20:23:03.445Z,7.80
2022-10-19T20:25:32.380Z,7.80
2022-10-19T20:28:01.103Z,7.80
2022-10-19T20:30:29.871Z,7.80
2022-10-19T20:32:58.887Z,7.80
2022-10-19T20:35:27.797Z,7.80
2022-10-19T20:37:58.877Z,7.70
2022-10-19T20:40:27.499Z,7.70
2022-10-19T20:42:56.740Z,7.70
2022-10-19T20:45:25.130Z,7.70
2022-10-19T20:47:53.822Z,7.60
2022-10-19T20:50:22.159Z,7.60
2022-10-19T20:52:50.598Z,7.60
2022-10-19T20:55:22.086Z,7.60
2022-10-19T20:57:50.435Z,7.60
2022-10-19T21:00:18.874Z,7.60
2022-10-19T21:02:47.350Z,7.60
2022-10-19T21:05:16.270Z,7.60
2022-10-19T21:07:44.582Z,7.60
2022-10-19T21:10:12.944Z,7.60
2022-10-19T21:12:42.821Z,7.50
2022-10-19T21:15:11.976Z,7.50
2022-10-19T21:17:40.525Z,7.50
2022-10-19T21:20:09.989Z,7.50
2022-10-19T21:22:41.401Z,7.50
2022-10-19T21:25:11.579Z,7.50
2022-10-19T21:27:40.079Z,7.40
2022-10-19T21:30:11.216Z,7.40
2022-10-19T21:32:39.873Z,7.50
2022-10-19T21:35:09.082Z,7.50
2022-10-19T21:37:37.745Z,7.50
2022-10-19T21:40:07.128Z,7.50
2022-10-19T21:42:35.636Z,7.50
2022-10-19T21:45:25.635Z,7.50
2022-10-19T21:47:53.979Z,7.40
2022-10-19T21:50:22.348Z,7.50
2022-10-19T21:52:50.767Z,7.40
2022-10-19T21:55:19.338Z,7.40
2022-10-19T21:57:47.981Z,7.40
2022-10-19T22:00:20.202Z,7.50
2022-10-19T22:02:50.377Z,7.40
2022-10-19T22:05:20.698Z,7.40
2022-10-19T22:07:49.520Z,7.40
2022-10-19T22:10:18.140Z,7.40
2022-10-19T22:12:46.611Z,7.40
2022-10-19T22:15:15.239Z,7.40
2022-10-19T22:17:43.730Z,7.30
2022-10-19T22:20:12.488Z,7.30
2022-10-19T22:22:42.362Z,7.30
2022-10-19T22:25:10.910Z,7.30
2022-10-19T22:27:39.503Z,7.30
2022-10-19T22:30:08.791Z,7.30
2022-10-19T22:32:37.667Z,7.20
2022-10-19T22:35:07.108Z,7.30
2022-10-19T22:37:36.421Z,7.30
2022-10-19T22:40:06.801Z,7.30
2022-10-19T22:42:35.263Z,7.30
2022-10-19T22:45:04.009Z,7.20
2022-10-19T22:47:32.303Z,7.30
2022-10-19T22:50:00.750Z,7.30
2022-10-19T22:52:29.151Z,7.30
2022-10-19T22:54:57.461Z,7.30
2022-10-19T22:57:27.259Z,7.30
2022-10-19T22:59:55.700Z,7.40
2022-10-19T23:02:23.967Z,7.30
2022-10-19T23:04:52.318Z,7.30
2022-10-19T23:07:20.598Z,7.30
2022-10-19T23:09:49.099Z,7.30
2022-10-19T23:12:17.520Z,7.30
2022-10-19T23:14:47.330Z,7.30
2022-10-19T23:17:15.729Z,7.30
2022-10-19T23:19:44.048Z,7.30
2022-10-19T23:22:12.382Z,7.30
2022-10-19T23:24:40.681Z,7.30
2022-10-19T23:27:09.089Z,7.30
2022-10-19T23:29:37.454Z,7.20
2022-10-19T23:32:07.800Z,7.20
2022-10-19T23:34:36.293Z,7.20
2022-10-19T23:37:04.597Z,7.20
2022-10-19T23:39:32.944Z,7.10
2022-10-19T23:42:01.310Z,7.10
2022-10-19T23:44:29.621Z,7.10
2022-10-19T23:46:57.949Z,7.10
2022-10-19T23:49:27.673Z,7.10
2022-10-19T23:51:56.103Z,7.00
2022-10-19T23:54:24.761Z,7.00
2022-10-19T23:56:53.199Z,6.90
2022-10-19T23:59:21.756Z,6.90
